Pyote, Texas
Current Conditions -  °F | °C
As of 1:53 PM on Saturday 25 Oct 2014 (Local Time) from KINK Reporting Station
Clear Clear  
Wind Chill: 84°   Ceiling: Unl
Heat Index: 84°   Visibility: 10mi
Dew Point: 51°   Wind: 5mph
Humidity: 32%   Direction: 220°SW
Pressure: 30.14"   Gusts: NA
Location:  31.53°N, 103.13°W
Report Text: KINK 251853Z AUTO 22004KT 10SM CLR 29/11 A3014 RMK AO2 SLP168 T02890106
Loading
Personal Weather Stations






























Interactive Weather Map
Tropical Storm Tracking
New forecast layout! Learn more

10-Day Weather Forecast

Advertisements
Track Severe Weather on mobile